• Join FlightAware (Why Join?)
  • Login
  • US Flag 
Trick or treat! (Boo!!) 
12:22AM EDT


 

Airport Tracker/Info


-or-


 

Live Flight TrackerFlight Track Log ✈ UCA3597 ✈ 01-May-2014 ✈ KIAD - KBGM

Flight Track Log - Related Links

Times and Time Zones

All times are in EDT time to prevent confusion due to time zone crossing. See the UCA3597 flight status page for this flight to view local times or setup timezone preferences in your user account.

Time Position Orientation Groundspeed Altitude Reporting Facility
EDT Latitude Longitude Course Direction KTS MPH feet Rate Location/Type
06:01PM 40.0385 -76.9815 19° North  Level Estimated
06:02PM 40.1163 -76.9467 19° North  Level Estimated
06:03PM 40.1942 -76.9119 19° North  Level Estimated
06:04PM 40.2720 -76.8770 19° North  Level Estimated
06:05PM 40.3498 -76.8420 19° North  Level Estimated
06:06PM 40.4276 -76.8069 19° North  Level Estimated
06:07PM 40.5054 -76.7717 19° North  Level Estimated
06:08PM 40.5832 -76.7365 19° North  Level Estimated
06:09PM 40.6610 -76.7012 19° North  Level Estimated
06:10PM 40.7388 -76.6658 19° North  Level Estimated
06:11PM 40.8165 -76.6303 19° North  Level Estimated
06:12PM 40.8943 -76.5947 19° North  Level Estimated
06:13PM 40.9720 -76.5591 19° North  Level Estimated
06:14PM 41.0497 -76.5233 19° North  Level Estimated
06:15PM 41.1274 -76.4875 19° North  Level Estimated
06:16PM 41.2052 -76.4516 19° North  Level Estimated
06:17PM 41.2828 -76.4156 19° North  Level Estimated
06:18PM 41.3605 -76.3795 19° North  Level Estimated
06:19PM 41.4382 -76.3433 19° North  Level Estimated
06:20PM 41.5159 -76.3071 19° North  Level Estimated
06:21PM 41.5935 -76.2707 19° North  Level Estimated
06:22PM 41.6711 -76.2343 19° North  Level Estimated
06:23PM 41.7487 -76.1978 19° North  Level Estimated
06:24PM 41.8264 -76.1612 19° North  Level Estimated
06:25PM 41.9040 -76.1245 19° North  Level Estimated
06:26PM 41.9816 -76.0877 19° North  Level Estimated
06:27PM 42.0591 -76.0508 19° North  Level Estimated
06:28PM 42.1367 -76.0139 19° North  Level Estimated
06:29PM 42.2084 -75.9796 19° North  Level Estimated
06:30PM 42.2084 -75.9796 North  Level Estimated
06:31PM 42.2084 -75.9796 North  Level Estimated
06:32PM 42.2084 -75.9796 North  Level Estimated
06:33PM 42.2084 -75.9796 North  Level Estimated
06:34PM 42.2084 -75.9796 North  Level Estimated
06:35PM 42.2084 -75.9796 North  Level Estimated
06:36PM 42.2084 -75.9796 North  Level Estimated
06:37PM 42.2084 -75.9796 North  Level Estimated
06:38PM 42.2084 -75.9796 North  Level Estimated
06:39PM 42.2084 -75.9796 North  Level Estimated
06:40PM 42.2084 -75.9796 North  Level Estimated
06:41PM 42.2084 -75.9796 North  Level Estimated
06:42PM 42.2084 -75.9796 North  Level Estimated
06:43PM 42.2084 -75.9796 North  Level Estimated
06:44PM 42.2084 -75.9796 North  Level Estimated
06:45PM 42.2084 -75.9796 North  Level Estimated